Time;durP1;ratioP1;P1;durP2;ratioP2;P2;SDS_P1;SDS_P2;PMS_P1;PMS_P2;Temp;Humidity;BMP_temperature;BMP_pressure;BME280_temperature;BME280_humidity;BME280_pressure;Samples;Min_cycle;Max_cycle;Signal;HPM_P1;HPM_P2
2021/08/16 00:00:44;;;;;;;5.90;4.88;;;;;;;18.33;63.27;97158.72;5103532;28;20048;-64
2021/08/16 00:03:11;;;;;;;9.40;5.25;;;;;;;17.99;63.39;97113.00;5104307;28;20055;-65
2021/08/16 00:05:39;;;;;;;7.15;4.55;;;;;;;18.33;63.33;97153.09;5101739;28;20564;-66
2021/08/16 00:08:10;;;;;;;8.90;4.88;;;;;;;18.35;63.34;97149.88;5102228;28;20579;-65
2021/08/16 00:10:37;;;;;;;6.38;5.15;;;;;;;18.32;63.20;97145.88;5103349;28;20105;-65
2021/08/16 00:13:04;;;;;;;6.18;4.80;;;;;;;18.32;63.33;97151.50;5102279;28;20553;-66
2021/08/16 00:15:31;;;;;;;7.80;4.68;;;;;;;18.32;63.25;97145.09;5101734;28;20170;-65
2021/08/16 00:17:59;;;;;;;7.07;4.72;;;;;;;18.20;63.55;97149.25;5102305;28;20054;-65
2021/08/16 00:20:27;;;;;;;7.55;5.53;;;;;;;17.89;64.42;97128.72;5102033;28;20059;-64
2021/08/16 00:22:54;;;;;;;6.47;4.88;;;;;;;17.98;64.28;97136.66;5102181;28;20421;-66
2021/08/16 00:25:22;;;;;;;7.28;4.85;;;;;;;17.96;64.48;97139.88;5103599;28;20062;-64
2021/08/16 00:27:50;;;;;;;6.65;5.13;;;;;;;17.94;64.53;97130.31;5102051;28;20105;-65
2021/08/16 00:30:18;;;;;;;10.75;5.35;;;;;;;17.58;64.99;97101.03;5103277;28;20051;-65
2021/08/16 00:32:44;;;;;;;6.53;4.25;;;;;;;17.66;65.52;97144.56;5103311;28;20101;-65
2021/08/16 00:35:11;;;;;;;8.18;5.07;;;;;;;17.71;65.54;97128.13;5103813;28;20112;-66
2021/08/16 00:37:38;;;;;;;8.07;4.65;;;;;;;16.95;65.23;97000.78;5103663;28;20142;-66
2021/08/16 00:40:06;;;;;;;8.00;4.97;;;;;;;17.14;65.07;97037.41;5103301;28;20140;-66
2021/08/16 00:42:33;;;;;;;7.10;4.80;;;;;;;17.63;65.57;97120.19;5102574;28;20143;-67
2021/08/16 00:45:03;;;;;;;7.00;4.97;;;;;;;17.40;65.68;97089.19;5101900;28;20109;-66
2021/08/16 00:47:31;;;;;;;7.00;5.65;;;;;;;17.17;65.75;97058.97;5102066;28;20352;-66
2021/08/16 00:49:58;;;;;;;7.45;4.60;;;;;;;17.48;66.21;97129.94;5102085;28;20125;-67
2021/08/16 00:52:26;;;;;;;11.70;6.78;;;;;;;16.75;67.30;97014.53;5085508;28;20052;-66
2021/08/16 00:54:54;;;;;;;9.40;6.40;;;;;;;16.94;68.88;97066.34;5103227;28;20059;-66
2021/08/16 00:57:22;;;;;;;14.80;6.95;;;;;;;17.08;69.88;97105.44;5103131;28;20055;-66
2021/08/16 00:59:49;;;;;;;11.85;7.28;;;;;;;17.09;70.40;97123.81;5102327;28;20059;-66
2021/08/16 01:02:16;;;;;;;10.35;6.00;;;;;;;17.22;70.06;97117.31;5101874;28;20051;-66
2021/08/16 01:04:44;;;;;;;10.10;5.47;;;;;;;17.26;68.65;97122.91;5106438;28;20513;-64
2021/08/16 01:07:11;;;;;;;7.43;5.05;;;;;;;16.73;67.84;97044.91;5105959;28;20525;-62
2021/08/16 01:09:38;;;;;;;9.05;5.45;;;;;;;17.30;67.30;97110.47;5105688;28;20055;-62
2021/08/16 01:12:05;;;;;;;9.57;5.35;;;;;;;17.00;67.42;97070.31;5105564;28;20083;-62
2021/08/16 01:14:32;;;;;;;8.75;5.13;;;;;;;17.26;67.25;97118.06;5105430;28;20147;-63
2021/08/16 01:16:59;;;;;;;9.05;4.82;;;;;;;16.67;66.72;97006.59;5105175;28;20073;-61
2021/08/16 01:19:26;;;;;;;9.70;4.80;;;;;;;17.40;66.31;97105.97;5105555;28;20055;-62
2021/08/16 01:21:53;;;;;;;7.82;4.68;;;;;;;17.36;66.72;97102.41;5107258;27;20066;-64
2021/08/16 01:24:21;;;;;;;10.15;4.35;;;;;;;17.23;66.70;97106.94;5106784;28;20087;-61
2021/08/16 01:26:48;;;;;;;6.95;4.90;;;;;;;17.01;66.79;97077.50;5105695;28;20052;-61
2021/08/16 01:29:21;;;;;;;7.20;4.78;;;;;;;17.02;67.19;97076.28;5105570;28;20051;-61
2021/08/16 01:31:58;;;;;;;5.93;4.57;;;;;;;17.28;66.64;97109.25;5106670;28;20166;-61
2021/08/16 01:34:25;;;;;;;6.45;4.85;;;;;;;17.28;66.71;97103.66;5104985;28;20490;-62
2021/08/16 01:36:53;;;;;;;9.43;4.63;;;;;;;17.10;67.36;97087.03;5105362;28;20084;-62
2021/08/16 01:39:20;;;;;;;7.22;4.70;;;;;;;17.10;67.40;97094.63;5105083;28;20496;-63
2021/08/16 01:41:48;;;;;;;7.30;4.25;;;;;;;16.54;67.84;97026.69;5105406;28;20059;-61
2021/08/16 01:44:19;;;;;;;5.25;4.40;;;;;;;16.90;68.11;97099.19;5105203;28;20062;-61
2021/08/16 01:46:46;;;;;;;7.57;4.45;;;;;;;16.97;67.81;97096.31;5106158;28;20051;-62
2021/08/16 01:49:15;;;;;;;6.75;4.38;;;;;;;16.97;68.00;97099.13;5104740;28;20116;-63
2021/08/16 01:51:42;;;;;;;7.20;4.70;;;;;;;16.94;67.79;97083.16;5105146;28;20146;-62
2021/08/16 01:54:10;;;;;;;7.97;5.22;;;;;;;16.66;67.52;97041.38;5104566;28;20144;-61
2021/08/16 01:56:39;;;;;;;8.75;5.20;;;;;;;17.07;66.92;97089.84;5105114;28;20402;-62
2021/08/16 01:59:07;;;;;;;8.98;5.47;;;;;;;17.18;67.03;97104.56;5106641;28;20504;-61
2021/08/16 02:01:34;;;;;;;7.60;5.35;;;;;;;17.18;66.90;97098.97;5104681;28;20074;-63
2021/08/16 02:04:01;;;;;;;11.35;5.97;;;;;;;16.86;66.89;97059.22;5105085;28;20055;-62
2021/08/16 02:06:28;;;;;;;8.65;5.00;;;;;;;16.78;66.36;97057.69;5104397;28;20060;-64
2021/08/16 02:08:56;;;;;;;8.95;4.88;;;;;;;17.32;66.50;97110.03;5106023;28;20138;-65
2021/08/16 02:11:26;;;;;;;8.57;4.93;;;;;;;17.25;66.83;97098.88;5104639;28;20092;-60
2021/08/16 02:13:53;;;;;;;8.90;4.80;;;;;;;17.14;67.26;97098.19;5105586;28;20059;-63
2021/08/16 02:16:20;;;;;;;6.85;5.00;;;;;;;17.22;66.94;97096.91;5105502;28;20517;-62
2021/08/16 02:19:01;;;;;;;7.47;5.30;;;;;;;16.64;66.88;97020.19;5105925;28;20130;-62
2021/08/16 02:21:28;;;;;;;6.90;4.40;;;;;;;16.91;66.84;97047.59;5106177;28;20510;-62
2021/08/16 02:23:54;;;;;;;7.45;4.70;;;;;;;16.65;67.19;97043.38;5104354;28;20912;-61
2021/08/16 02:26:21;;;;;;;7.53;4.82;;;;;;;17.02;67.32;97095.88;5104081;28;20055;-63
2021/08/16 02:28:48;;;;;;;12.48;5.05;;;;;;;17.05;67.29;97101.47;5103966;28;20062;-65
2021/08/16 02:31:20;;;;;;;10.07;4.82;;;;;;;16.98;67.29;97111.88;5105607;28;20181;-62
2021/08/16 02:33:48;;;;;;;7.65;4.95;;;;;;;16.84;68.31;97098.00;5103846;28;20055;-62
2021/08/16 02:36:14;;;;;;;9.10;4.72;;;;;;;16.78;68.56;97091.25;5101036;27;20636;-65
2021/08/16 02:38:41;;;;;;;7.30;4.18;;;;;;;16.76;68.49;97096.44;5103743;28;20055;-64
2021/08/16 02:41:08;;;;;;;7.68;4.75;;;;;;;16.42;68.65;97063.44;5104182;28;20062;-62
2021/08/16 02:43:35;;;;;;;8.95;5.15;;;;;;;16.36;69.03;97065.09;5104159;28;20062;-64
2021/08/16 02:46:02;;;;;;;6.88;5.15;;;;;;;16.29;69.04;97037.19;5103642;28;20096;-64
2021/08/16 02:48:29;;;;;;;8.68;4.78;;;;;;;16.67;69.31;97098.91;5105471;28;20547;-63
2021/08/16 02:50:56;;;;;;;6.68;4.75;;;;;;;16.59;69.43;97100.97;5105111;28;20486;-62
2021/08/16 02:53:22;;;;;;;9.00;5.32;;;;;;;15.92;69.52;96989.47;5103373;28;20055;-62
2021/08/16 02:55:49;;;;;;;8.75;6.05;;;;;;;16.51;69.88;97094.63;5105025;28;20055;-62
2021/08/16 02:58:16;;;;;;;7.97;5.18;;;;;;;16.16;69.92;97055.63;5105235;28;20044;-63
2021/08/16 03:00:43;;;;;;;9.07;5.60;;;;;;;16.15;69.81;97054.03;5103660;28;20078;-66
2021/08/16 03:03:10;;;;;;;8.70;4.90;;;;;;;16.44;70.30;97099.41;5104870;28;20059;-65
2021/08/16 03:05:37;;;;;;;8.63;5.00;;;;;;;16.37;70.19;97089.06;5103138;28;20063;-62
2021/08/16 03:08:04;;;;;;;8.15;4.85;;;;;;;16.19;70.25;97077.16;5103316;28;20055;-62
2021/08/16 03:10:33;;;;;;;11.90;6.47;;;;;;;16.25;70.47;97086.72;5104730;27;20055;-62
2021/08/16 03:13:00;;;;;;;8.82;5.80;;;;;;;16.17;70.55;97079.56;5103090;28;20047;-63
2021/08/16 03:15:27;;;;;;;10.07;5.00;;;;;;;15.87;70.26;97031.00;5102975;28;20410;-63
2021/08/16 03:17:55;;;;;;;8.50;4.40;;;;;;;15.54;70.77;96984.81;5103416;28;20513;-67
2021/08/16 03:20:22;;;;;;;7.10;4.80;;;;;;;15.73;70.97;97029.03;5102998;28;20051;-65
2021/08/16 03:22:49;;;;;;;12.50;5.35;;;;;;;16.15;71.46;97104.34;5104495;28;20053;-64
2021/08/16 03:25:16;;;;;;;9.27;5.43;;;;;;;16.19;71.05;97119.09;5104424;28;20145;-64
2021/08/16 03:27:43;;;;;;;10.82;5.03;;;;;;;16.10;71.46;97113.13;5102282;28;20424;-62
2021/08/16 03:30:12;;;;;;;8.10;4.70;;;;;;;15.91;71.00;97059.72;5102792;28;20738;-65
2021/08/16 03:32:39;;;;;;;7.28;4.65;;;;;;;15.92;70.93;97061.28;5104451;28;20161;-65
2021/08/16 03:35:06;;;;;;;7.13;4.53;;;;;;;16.21;70.98;97102.72;5102546;28;20134;-62
2021/08/16 03:37:35;;;;;;;6.55;4.82;;;;;;;16.01;70.91;97087.59;5104286;28;20108;-66
2021/08/16 03:40:03;;;;;;;10.80;4.97;;;;;;;15.93;70.72;97058.09;5102557;28;20414;-63
2021/08/16 03:42:30;;;;;;;8.38;5.07;;;;;;;15.73;70.83;97050.59;5102845;28;20541;-65
2021/08/16 03:44:57;;;;;;;8.27;5.00;;;;;;;15.85;71.29;97073.31;5104129;28;20073;-62
2021/08/16 03:47:24;;;;;;;7.38;4.70;;;;;;;16.24;70.99;97107.50;5102584;28;20131;-63
2021/08/16 03:49:51;;;;;;;7.05;4.78;;;;;;;16.10;70.45;97089.97;5102208;28;20536;-65
2021/08/16 03:52:18;;;;;;;7.38;4.75;;;;;;;16.18;70.35;97081.16;5103213;28;20505;-63
2021/08/16 03:54:45;;;;;;;7.82;4.50;;;;;;;16.42;69.82;97119.38;5102100;28;20808;-64
2021/08/16 03:57:18;;;;;;;7.63;4.30;;;;;;;16.05;70.23;97066.03;5102989;28;20147;-65
2021/08/16 03:59:46;;;;;;;6.35;4.18;;;;;;;16.38;70.14;97124.19;5103840;28;20082;-64
2021/08/16 04:02:12;;;;;;;8.00;5.18;;;;;;;16.38;70.09;97117.81;5102647;28;20442;-64
2021/08/16 04:04:39;;;;;;;11.18;5.50;;;;;;;16.51;69.76;97121.78;5101800;28;20502;-63
2021/08/16 04:07:06;;;;;;;11.32;4.88;;;;;;;16.57;69.09;97115.34;5104065;28;20062;-65
2021/08/16 04:09:33;;;;;;;11.80;5.10;;;;;;;16.58;69.16;97121.75;5102139;28;20125;-63
2021/08/16 04:12:00;;;;;;;11.95;7.70;;;;;;;16.60;68.88;97114.53;5101618;28;20130;-63
2021/08/16 04:14:26;;;;;;;16.05;8.32;;;;;;;16.63;68.62;97117.72;5103497;28;20095;-64
2021/08/16 04:16:53;;;;;;;11.95;6.82;;;;;;;16.37;68.43;97057.50;5102620;28;20139;-62
2021/08/16 04:19:20;;;;;;;9.50;4.93;;;;;;;15.21;68.93;96886.84;5103573;28;20135;-62
2021/08/16 04:21:47;;;;;;;7.93;5.78;;;;;;;16.76;69.35;97116.03;5101778;28;20148;-67
2021/08/16 04:24:14;;;;;;;13.38;5.97;;;;;;;16.94;68.68;97116.72;5101912;28;20064;-62
2021/08/16 04:26:41;;;;;;;12.48;6.30;;;;;;;16.97;67.88;97090.72;5102141;28;20086;-63
2021/08/16 04:29:08;;;;;;;16.40;6.72;;;;;;;17.14;67.61;97109.38;5101807;28;20047;-62
2021/08/16 04:31:35;;;;;;;11.70;5.88;;;;;;;17.18;67.59;97098.97;5103603;28;20051;-62
2021/08/16 04:34:02;;;;;;;9.77;5.20;;;;;;;16.84;67.01;97040.03;5101740;28;20096;-61
2021/08/16 04:36:29;;;;;;;22.75;7.28;;;;;;;17.39;66.29;97098.78;5103759;28;20055;-63
2021/08/16 04:38:56;;;;;;;34.72;6.35;;;;;;;17.55;65.86;97099.06;5105334;28;20160;-64
2021/08/16 04:41:23;;;;;;;30.67;8.02;;;;;;;17.60;65.20;97087.41;5106078;28;20050;-62
2021/08/16 04:43:49;;;;;;;23.88;7.10;;;;;;;17.44;65.14;97068.34;5107750;28;20456;-61
2021/08/16 04:46:16;;;;;;;29.13;6.30;;;;;;;17.07;64.62;96997.50;5107724;28;20051;-62
2021/08/16 04:48:43;;;;;;;15.20;6.03;;;;;;;17.69;64.25;97068.09;5107530;28;20123;-62
2021/08/16 04:51:10;;;;;;;19.48;5.95;;;;;;;18.10;63.38;97099.69;5105803;28;20056;-63
2021/08/16 04:53:37;;;;;;;23.30;6.93;;;;;;;18.33;62.70;97119.44;5107054;28;20532;-62
2021/08/16 04:56:04;;;;;;;14.38;5.82;;;;;;;17.79;62.22;96977.53;5107261;28;20056;-62
2021/08/16 04:58:31;;;;;;;13.85;5.28;;;;;;;17.92;62.35;97010.19;5107321;28;20083;-63
2021/08/16 05:00:58;;;;;;;17.02;6.20;;;;;;;18.90;61.95;97125.94;5105686;28;20083;-65
2021/08/16 05:03:26;;;;;;;11.98;6.45;;;;;;;19.06;61.98;97125.31;5107354;28;20128;-63
2021/08/16 05:05:54;;;;;;;12.40;6.43;;;;;;;19.21;61.56;97124.66;5105354;28;20453;-63
2021/08/16 05:08:21;;;;;;;21.67;7.30;;;;;;;18.35;63.34;97026.47;5106951;28;20478;-62
2021/08/16 05:10:49;;;;;;;18.00;6.45;;;;;;;18.85;61.89;97061.84;5107372;28;20142;-63
2021/08/16 05:13:15;;;;;;;16.90;6.43;;;;;;;19.23;62.07;97094.13;5107440;28;20354;-63
2021/08/16 05:15:45;;;;;;;12.85;5.82;;;;;;;19.63;59.01;97116.78;5105720;28;20070;-64
2021/08/16 05:18:12;;;;;;;16.15;4.97;;;;;;;19.79;58.12;97130.97;5105592;28;20064;-64
2021/08/16 05:20:40;;;;;;;10.35;4.72;;;;;;;19.79;58.02;97075.50;5104978;28;20082;-64
2021/08/16 05:23:07;;;;;;;9.90;5.35;;;;;;;20.18;56.76;97097.31;5105323;28;20560;-63
2021/08/16 05:25:34;;;;;;;16.17;8.02;;;;;;;20.26;57.14;97115.63;5106673;28;20060;-63
2021/08/16 05:28:01;;;;;;;10.95;5.70;;;;;;;20.17;56.43;97076.81;5105193;28;20060;-64
2021/08/16 05:30:28;;;;;;;9.88;5.32;;;;;;;20.32;55.87;97057.63;5104978;28;20061;-64
2021/08/16 05:32:54;;;;;;;12.93;5.25;;;;;;;20.58;55.82;97051.03;5106975;28;20051;-64
2021/08/16 05:35:21;;;;;;;8.40;4.30;;;;;;;20.87;54.50;97063.22;5106276;28;20056;-62
2021/08/16 05:37:49;;;;;;;8.32;5.18;;;;;;;21.34;53.71;97100.41;5104868;28;20510;-64
2021/08/16 05:40:16;;;;;;;15.25;4.80;;;;;;;21.41;53.45;97101.00;5106310;28;20506;-65
2021/08/16 05:42:43;;;;;;;7.57;5.20;;;;;;;21.58;52.91;97104.59;5106682;28;20501;-63
2021/08/16 05:45:10;;;;;;;8.90;6.00;;;;;;;21.54;53.42;97090.63;5104473;28;20048;-64
2021/08/16 05:47:37;;;;;;;10.95;5.45;;;;;;;21.74;52.27;97084.84;5104498;28;20052;-64
2021/08/16 05:50:05;;;;;;;11.95;4.22;;;;;;;21.98;52.61;97106.81;5105064;28;20075;-63
2021/08/16 05:52:36;;;;;;;12.55;6.45;;;;;;;21.93;53.04;97064.22;5106415;28;20055;-63
2021/08/16 05:55:03;;;;;;;9.40;5.80;;;;;;;21.53;52.03;97024.19;5106294;27;20170;-63
2021/08/16 05:57:30;;;;;;;14.80;5.57;;;;;;;20.21;53.05;96803.88;5106090;28;20477;-63
2021/08/16 05:59:57;;;;;;;12.70;5.88;;;;;;;21.69;52.21;96976.22;5098584;28;20047;-66
2021/08/16 06:02:24;;;;;;;12.35;5.80;;;;;;;22.59;51.65;97089.00;5096309;28;20368;-73
2021/08/16 06:04:51;;;;;;;17.52;8.27;;;;;;;22.46;51.33;97044.53;5101138;28;20530;-65
2021/08/16 06:07:20;;;;;;;6.10;5.43;;;;;;;22.82;50.80;97057.63;5105303;28;20051;-60
2021/08/16 06:09:47;;;;;;;8.90;5.60;;;;;;;23.16;49.98;97081.16;5103048;28;20051;-61
2021/08/16 06:12:14;;;;;;;12.98;5.05;;;;;;;23.25;49.95;97081.28;5084804;28;20052;-65
2021/08/16 06:14:41;;;;;;;9.75;5.68;;;;;;;23.55;48.52;97066.56;5081937;28;20059;-61
2021/08/16 06:17:08;;;;;;;8.73;5.07;;;;;;;23.48;48.24;97043.38;5083750;28;20391;-59
2021/08/16 06:19:35;;;;;;;10.05;5.65;;;;;;;23.24;47.70;96996.91;5083648;28;20123;-65
2021/08/16 06:22:02;;;;;;;12.48;5.63;;;;;;;23.99;47.51;97078.84;5086671;28;20071;-63
2021/08/16 06:24:30;;;;;;;10.40;5.63;;;;;;;23.27;46.71;96937.47;5085301;28;20083;-62
2021/08/16 06:26:58;;;;;;;8.65;5.18;;;;;;;24.17;46.76;97032.91;5098113;28;20063;-60
2021/08/16 06:29:25;;;;;;;5.82;5.07;;;;;;;23.93;45.72;97024.03;5085182;28;20131;-66
2021/08/16 06:31:51;;;;;;;7.07;5.90;;;;;;;24.68;45.57;97086.00;5090073;28;20507;-71
2021/08/16 06:34:19;;;;;;;8.45;5.65;;;;;;;24.84;45.63;97071.63;5104586;27;20483;-62
2021/08/16 06:36:52;;;;;;;8.15;6.20;;;;;;;24.88;46.07;97075.09;5105590;28;20111;-60
2021/08/16 06:39:20;;;;;;;8.63;5.18;;;;;;;24.97;44.69;97075.16;5097319;28;20104;-61
2021/08/16 06:41:50;;;;;;;8.80;5.50;;;;;;;25.17;43.83;97067.06;5103388;28;20070;-67
2021/08/16 06:44:23;;;;;;;8.87;5.87;;;;;;;24.84;43.33;97003.63;5104656;28;20060;-65
2021/08/16 06:46:50;;;;;;;7.85;5.68;;;;;;;25.46;43.34;97068.78;5095254;28;20140;-63
2021/08/16 06:49:16;;;;;;;8.32;5.32;;;;;;;25.29;42.87;97028.53;5084130;28;20055;-60
2021/08/16 06:51:43;;;;;;;9.13;6.00;;;;;;;25.71;42.62;97068.53;5090550;28;20131;-62
2021/08/16 06:54:11;;;;;;;6.22;5.38;;;;;;;25.30;42.85;96985.50;5086568;28;20168;-61
2021/08/16 06:56:55;;;;;;;12.65;7.40;;;;;;;25.95;42.17;97058.16;5097216;28;20055;-69
2021/08/16 06:59:22;;;;;;;9.30;5.60;;;;;;;25.90;41.82;97004.84;5103993;28;20201;-61
2021/08/16 07:01:49;;;;;;;8.05;5.60;;;;;;;26.51;41.64;97061.34;5103706;28;20066;-61
2021/08/16 07:04:18;;;;;;;12.80;6.50;;;;;;;26.34;41.05;97040.19;5103461;28;20118;-62
2021/08/16 07:06:46;;;;;;;7.45;6.00;;;;;;;25.07;41.50;96809.53;5098982;28;20068;-71
2021/08/16 07:09:13;;;;;;;10.45;6.57;;;;;;;26.86;41.39;97048.34;5103602;28;20233;-71
2021/08/16 07:11:40;;;;;;;6.97;5.55;;;;;;;26.54;40.13;96969.47;5104191;28;20059;-64
2021/08/16 07:14:07;;;;;;;9.60;6.55;;;;;;;27.09;40.96;97039.13;5094525;28;20961;-62
2021/08/16 07:16:34;;;;;;;8.70;5.70;;;;;;;27.35;39.12;97051.69;5084568;28;20560;-63
2021/08/16 07:19:01;;;;;;;13.52;6.25;;;;;;;27.23;38.54;97032.75;5092392;28;20058;-65
2021/08/16 07:21:27;;;;;;;8.18;5.70;;;;;;;27.62;38.45;97048.69;5101277;28;20051;-61
2021/08/16 07:23:55;;;;;;;15.23;5.72;;;;;;;27.95;38.43;97049.47;5104651;28;20055;-61
2021/08/16 07:26:22;;;;;;;9.27;6.22;;;;;;;27.71;37.97;96980.31;5104646;28;20060;-70
2021/08/16 07:28:48;;;;;;;6.18;5.53;;;;;;;28.32;37.52;97054.88;5104547;28;20082;-61
2021/08/16 07:31:19;;;;;;;6.07;5.38;;;;;;;27.20;36.08;96851.66;5102239;28;20055;-66
2021/08/16 07:33:46;;;;;;;5.65;5.15;;;;;;;26.63;36.82;96796.06;5087908;28;20047;-66
2021/08/16 07:36:13;;;;;;;7.32;6.28;;;;;;;28.33;37.04;97045.84;5098164;28;20043;-66
2021/08/16 07:38:40;;;;;;;8.32;5.93;;;;;;;28.14;36.59;96976.81;5097302;28;20506;-64
2021/08/16 07:41:06;;;;;;;7.30;5.82;;;;;;;28.94;35.65;97038.47;5103377;28;20048;-63
2021/08/16 07:43:33;;;;;;;10.13;6.03;;;;;;;28.55;35.41;96954.31;5084271;28;20062;-65
2021/08/16 07:46:00;;;;;;;8.27;5.72;;;;;;;29.25;34.61;97036.69;5082175;28;20079;-65
2021/08/16 07:48:27;;;;;;;6.70;6.10;;;;;;;29.54;33.88;97035.84;5083686;28;20510;-64
2021/08/16 07:50:54;;;;;;;6.85;6.15;;;;;;;29.79;33.29;97035.19;5083927;28;20138;-66
2021/08/16 07:53:21;;;;;;;10.02;5.90;;;;;;;29.84;32.53;97008.78;5083289;28;20055;-66
2021/08/16 07:55:48;;;;;;;7.85;5.80;;;;;;;30.23;32.57;97030.09;5098568;28;20059;-68
2021/08/16 07:58:15;;;;;;;7.95;6.97;;;;;;;29.90;32.16;96969.63;5102751;28;20062;-63
2021/08/16 08:00:42;;;;;;;29.70;26.13;;;;;;;29.87;31.85;96956.34;5087185;28;20088;-62
2021/08/16 08:03:09;;;;;;;8.43;6.65;;;;;;;29.63;31.80;96938.59;5090855;28;20532;-62
2021/08/16 08:05:36;;;;;;;7.22;6.53;;;;;;;29.42;32.23;96971.28;5085745;28;20491;-64
2021/08/16 08:08:03;;;;;;;10.10;6.65;;;;;;;30.06;32.37;97026.22;5082698;28;20050;-61
2021/08/16 08:10:29;;;;;;;11.35;8.20;;;;;;;29.41;32.55;96935.47;5088279;28;20053;-66
2021/08/16 08:12:57;;;;;;;7.22;6.55;;;;;;;29.70;32.69;96986.78;5096322;28;20047;-62
2021/08/16 08:15:24;;;;;;;7.78;6.97;;;;;;;30.29;32.47;97016.63;5089853;28;20097;-67
2021/08/16 08:17:51;;;;;;;9.27;5.97;;;;;;;30.46;31.96;97026.19;5083964;28;20062;-64
2021/08/16 08:20:19;;;;;;;7.60;6.18;;;;;;;30.53;32.21;97002.06;5088497;28;20877;-69
2021/08/16 08:22:45;;;;;;;7.22;6.53;;;;;;;30.10;31.28;96926.75;5082560;28;20052;-63
2021/08/16 08:25:12;;;;;;;10.00;6.75;;;;;;;30.61;31.81;96966.03;5089366;28;20044;-65
2021/08/16 08:27:39;;;;;;;7.80;6.57;;;;;;;30.88;31.51;96974.91;5095704;28;20157;-67
2021/08/16 08:30:07;;;;;;;8.80;6.05;;;;;;;31.33;31.03;97021.09;5095284;28;20109;-65
2021/08/16 08:32:53;;;;;;;10.38;7.18;;;;;;;31.30;31.09;97014.28;5083014;28;20101;-65
2021/08/16 08:35:20;;;;;;;7.38;6.40;;;;;;;31.15;31.87;96995.66;5082386;28;20487;-65
2021/08/16 08:37:49;;;;;;;8.80;7.45;;;;;;;31.39;31.60;97011.25;5098305;28;20064;-63
2021/08/16 08:40:17;;;;;;;7.70;7.00;;;;;;;30.74;32.02;97010.13;5085376;28;20503;-64
2021/08/16 08:42:53;;;;;;;7.57;6.88;;;;;;;30.22;32.13;96917.03;5094182;28;20070;-67
2021/08/16 08:45:22;;;;;;;7.60;6.90;;;;;;;30.97;31.92;97007.50;5096504;28;20063;-62
2021/08/16 08:47:49;;;;;;;8.07;6.78;;;;;;;31.02;32.34;96992.41;5102303;28;20510;-62
2021/08/16 08:50:18;;;;;;;9.95;7.40;;;;;;;31.18;32.26;96988.91;5089083;28;20044;-62
2021/08/16 08:52:46;;;;;;;7.88;7.03;;;;;;;31.55;31.89;96998.34;5100124;28;20055;-61
2021/08/16 08:55:13;;;;;;;8.90;7.78;;;;;;;31.72;32.24;96987.75;5092590;28;20081;-63
2021/08/16 08:58:01;;;;;;;8.23;7.07;;;;;;;31.84;31.79;97000.84;5083047;28;20059;-62
2021/08/16 09:00:29;;;;;;;9.80;6.90;;;;;;;32.08;31.45;96992.63;5084396;28;20058;-62
2021/08/16 09:02:56;;;;;;;11.25;7.95;;;;;;;32.25;31.04;96984.88;5082217;28;20388;-63
2021/08/16 09:05:23;;;;;;;7.90;7.20;;;;;;;32.19;30.87;96989.81;5094197;28;20216;-62
2021/08/16 09:07:50;;;;;;;8.27;7.47;;;;;;;31.62;31.07;96880.38;5091763;28;20482;-67
2021/08/16 09:10:18;;;;;;;8.45;7.07;;;;;;;32.23;30.45;96961.69;5081619;28;20088;-66
2021/08/16 09:12:45;;;;;;;7.68;6.97;;;;;;;31.92;29.79;96904.50;5081163;28;20060;-62
2021/08/16 09:15:20;;;;;;;10.77;7.78;;;;;;;32.46;29.31;96949.00;5080317;28;20469;-66
2021/08/16 09:17:47;;;;;;;9.02;7.68;;;;;;;32.51;28.80;96979.78;5082222;28;20048;-66
2021/08/16 09:20:36;;;;;;;8.07;7.03;;;;;;;32.62;29.42;96968.31;5082614;28;20084;-73
2021/08/16 09:23:14;;;;;;;7.35;6.65;;;;;;;32.85;29.74;96964.16;5082478;28;20521;-66
2021/08/16 09:25:53;;;;;;;8.48;7.70;;;;;;;32.60;28.15;96896.31;5096961;28;20043;-66
2021/08/16 09:28:31;;;;;;;8.15;6.97;;;;;;;33.09;28.35;96966.53;5090133;28;20227;-67
2021/08/16 09:31:11;;;;;;;7.97;6.90;;;;;;;33.11;27.82;96964.72;5097505;28;20105;-60
2021/08/16 09:34:10;;;;;;;7.15;6.50;;;;;;;33.23;26.35;96980.63;5095163;28;20051;-60
2021/08/16 09:36:39;;;;;;;8.15;6.18;;;;;;;33.01;26.27;96942.53;5088050;28;20498;-68
2021/08/16 09:39:20;;;;;;;11.68;8.38;;;;;;;33.20;25.97;96958.72;5095570;28;20063;-70
2021/08/16 09:41:56;;;;;;;6.25;5.55;;;;;;;33.13;25.24;96927.66;5102269;28;20086;-71
2021/08/16 09:44:24;;;;;;;12.73;8.20;;;;;;;32.66;25.93;96928.66;5106229;28;20051;-75
2021/08/16 09:47:05;;;;;;;6.18;5.57;;;;;;;32.98;24.02;96904.19;5089896;28;20050;-62
2021/08/16 09:49:33;;;;;;;6.72;6.10;;;;;;;33.21;21.85;96957.38;5083882;28;20048;-69
2021/08/16 09:52:04;;;;;;;6.10;5.50;;;;;;;33.47;21.39;96949.31;5085492;28;20201;-64
2021/08/16 09:54:33;;;;;;;5.53;5.13;;;;;;;33.58;23.34;96946.41;5085595;28;20135;-63
2021/08/16 09:57:03;;;;;;;7.55;6.95;;;;;;;33.12;23.77;96937.56;5085846;28;20474;-64
2021/08/16 09:59:32;;;;;;;8.43;7.05;;;;;;;33.39;23.12;96933.09;5085515;28;20729;-62
2021/08/16 10:02:01;;;;;;;5.35;4.95;;;;;;;33.24;22.58;96893.19;5085864;28;20502;-63
2021/08/16 10:04:32;;;;;;;6.50;5.90;;;;;;;33.36;23.54;96937.00;5099180;28;20183;-63
2021/08/16 10:07:02;;;;;;;5.07;4.57;;;;;;;33.58;21.88;96929.16;5104220;28;20047;-67
2021/08/16 10:09:50;;;;;;;6.50;4.80;;;;;;;32.97;22.40;96842.34;5088450;28;20430;-63
2021/08/16 10:12:18;;;;;;;5.80;5.40;;;;;;;33.78;22.25;96917.31;5099963;28;20570;-72
2021/08/16 10:14:46;;;;;;;6.65;6.10;;;;;;;34.09;23.22;96915.38;5086286;28;20139;-70
2021/08/16 10:17:33;;;;;;;7.35;6.75;;;;;;;32.52;24.09;96660.03;5102463;28;20142;-64
2021/08/16 10:20:01;;;;;;;6.70;6.05;;;;;;;34.37;24.57;96916.00;5105524;28;20051;-63
2021/08/16 10:22:35;;;;;;;7.10;6.53;;;;;;;34.59;24.23;96933.16;5092273;28;20083;-64
2021/08/16 10:25:14;;;;;;;8.57;6.70;;;;;;;33.81;24.48;96848.59;5083213;28;20083;-63
2021/08/16 10:27:41;;;;;;;6.45;5.82;;;;;;;34.09;23.31;96921.13;5097284;28;20376;-68
2021/08/16 10:30:13;;;;;;;8.52;6.20;;;;;;;33.46;24.35;96910.41;5088362;28;20058;-68
2021/08/16 10:32:40;;;;;;;7.90;5.57;;;;;;;33.06;24.04;96905.22;5087391;28;20128;-67
2021/08/16 10:35:13;;;;;;;6.80;6.20;;;;;;;33.70;24.14;96912.66;5103246;28;20491;-65
2021/08/16 10:37:43;;;;;;;7.15;6.55;;;;;;;34.17;23.94;96904.88;5103290;28;20051;-63
2021/08/16 10:40:15;;;;;;;7.07;6.47;;;;;;;34.48;23.87;96907.31;5101794;28;20131;-65
2021/08/16 10:42:42;;;;;;;8.60;7.80;;;;;;;34.26;23.75;96901.69;5087912;28;20043;-63
2021/08/16 10:45:10;;;;;;;7.00;6.40;;;;;;;34.21;23.60;96847.88;5101892;28;20122;-65
2021/08/16 10:47:37;;;;;;;6.63;5.68;;;;;;;34.58;22.79;96882.66;5088666;28;20538;-70
2021/08/16 10:50:08;;;;;;;7.10;6.28;;;;;;;34.94;22.86;96887.09;5083694;28;20052;-63
2021/08/16 10:52:38;;;;;;;6.90;5.75;;;;;;;34.40;22.90;96883.34;5083224;28;20135;-70
2021/08/16 10:55:10;;;;;;;6.20;5.60;;;;;;;34.43;23.11;96876.53;5089000;28;20055;-69
2021/08/16 10:57:38;;;;;;;6.50;5.93;;;;;;;34.55;23.00;96860.72;5085547;28;20136;-65
2021/08/16 11:00:09;;;;;;;9.05;6.53;;;;;;;34.96;22.65;96872.97;5094372;28;20130;-68
2021/08/16 11:02:40;;;;;;;5.97;5.47;;;;;;;34.92;22.02;96837.94;5104415;28;20474;-65
2021/08/16 11:05:09;;;;;;;6.95;6.35;;;;;;;35.02;22.69;96870.81;5098594;28;20055;-66
2021/08/16 11:07:36;;;;;;;6.72;6.13;;;;;;;35.20;22.07;96857.78;5094261;28;20044;-60
2021/08/16 11:10:06;;;;;;;6.55;6.13;;;;;;;34.86;22.69;96871.69;5088328;28;20062;-63
2021/08/16 11:12:43;;;;;;;7.20;6.60;;;;;;;34.82;22.94;96879.88;5104457;28;20087;-64
2021/08/16 11:15:17;;;;;;;6.38;5.88;;;;;;;34.90;22.32;96840.56;5102942;28;20108;-64
2021/08/16 11:17:44;;;;;;;6.53;5.85;;;;;;;35.04;22.67;96845.13;5084208;28;20055;-64
2021/08/16 11:20:15;;;;;;;7.43;5.95;;;;;;;34.59;22.67;96843.94;5082799;28;20095;-72
2021/08/16 11:22:53;;;;;;;6.22;5.78;;;;;;;34.54;23.42;96818.88;5087996;28;20055;-72
2021/08/16 11:25:21;;;;;;;7.65;6.70;;;;;;;33.88;24.08;96816.44;5097403;28;20047;-62
2021/08/16 11:27:48;;;;;;;8.23;7.32;;;;;;;34.05;23.64;96822.88;5096703;28;20131;-62
2021/08/16 11:30:15;;;;;;;7.22;6.53;;;;;;;33.68;24.34;96818.34;5100231;28;20072;-64
2021/08/16 11:32:42;;;;;;;7.00;6.50;;;;;;;33.91;23.88;96806.75;5104386;28;20057;-68
2021/08/16 11:35:10;;;;;;;6.82;6.22;;;;;;;34.15;24.17;96826.97;5104340;28;20539;-63
2021/08/16 11:37:48;;;;;;;6.97;6.38;;;;;;;33.92;24.83;96832.09;5104175;28;20054;-66